Previous Day
Next Day
Current Day
SHEF ID: FVSO2 FAIRVIEW
STATION TYPE: Mesonet
PRECIP AIR-TEMP WIND-DIRWIND-SPEED REL-HUMID SOLAR-RAD
in F deg mph % W/m2
Raw-Meson Raw-Meson Raw-Meson Raw-Meson Raw-Meson Raw-Meson
(US/Central)
06/01 00:00 0.00 58.06 60.75 7.49 91.75 0.00
06/01 01:00 0.00 57.88 55.50 3.86 91.75 0.00
06/01 02:00 0.00 58.01 179.50 3.80 91.75 0.00
06/01 03:00 0.00 57.83 252.50 3.36 93.50 0.00
06/01 04:00 0.00 57.29 345.50 4.42 94.00 0.00
06/01 05:00 0.00 56.57 337.00 4.87 94.00 0.00
06/01 06:00 0.00 55.85 329.25 3.41 94.75 0.00
06/01 07:00 0.00 56.12 333.25 4.64 94.00 13.00
06/01 08:00 0.00 57.25 344.00 5.48 92.25 88.75
06/01 09:00 0.00 59.99 99.50 9.96 83.75 284.50
06/01 10:00 0.00 60.71 14.00 8.44 83.00 296.50
06/01 11:00 0.00 63.41 26.50 9.62 78.50 523.50
06/01 12:00 0.00 66.25 25.00 8.72 73.25 583.25
06/01 13:00 0.00 67.64 26.00 7.21 70.00 708.25
06/01 14:00 0.00 69.75 31.25 6.88 65.25 961.75
06/01 15:00 0.00 71.01 112.25 8.44 62.75 805.25
06/01 16:00 0.00 70.61 29.25 7.27 62.75 403.25
06/01 17:00 0.00 70.38 49.75 5.42 62.75 208.25
06/01 18:00 0.00 69.48 47.75 6.09 66.25 103.50
06/01 19:00 0.00 69.58 68.00 4.53 65.75 132.00
06/01 20:00 0.00 68.09 85.25 5.42 70.50 97.50
06/01 21:00 0.00 65.03 113.00 1.73 82.25 13.25
06/01 22:00 0.00 63.14 179.75 2.79 90.25 0.00
06/01 23:00 ---- 62.02 235.75 2.86 90.50 0.00